Time;durP1;ratioP1;P1;durP2;ratioP2;P2;SDS_P1;SDS_P2;PMS_P1;PMS_P2;Temp;Humidity;BMP_temperature;BMP_pressure;BME280_temperature;BME280_humidity;BME280_pressure;Samples;Min_cycle;Max_cycle;Signal;HPM_P1;HPM_P2
2023/05/19 00:01:48;;;;;;;14.60;11.20;;;;;;;20.72;44.74;100911.61;109265;1250;58732;-53
2023/05/19 00:04:16;;;;;;;15.00;11.50;;;;;;;20.72;45.84;100919.70;109243;1251;67155;-52
2023/05/19 00:06:45;;;;;;;12.80;10.30;;;;;;;20.69;45.71;100922.73;109248;1250;73469;-53
2023/05/19 00:09:12;;;;;;;14.20;12.20;;;;;;;20.66;44.83;100929.70;109113;1251;66411;-52
2023/05/19 00:11:39;;;;;;;14.70;11.40;;;;;;;20.61;44.50;100926.96;109242;1248;60240;-53
2023/05/19 00:14:08;;;;;;;15.10;11.50;;;;;;;20.57;44.65;100927.95;109182;1251;59637;-52
2023/05/19 00:16:36;;;;;;;14.20;11.70;;;;;;;20.53;44.84;100930.14;109256;1250;66041;-53
2023/05/19 00:19:04;;;;;;;18.20;11.40;;;;;;;20.51;45.06;100928.44;109216;1251;62286;-54
2023/05/19 00:21:31;;;;;;;15.70;11.10;;;;;;;20.55;45.07;100928.20;109242;1251;65085;-53
2023/05/19 00:23:58;;;;;;;13.30;11.00;;;;;;;20.58;45.20;100931.09;109225;1248;58493;-52
2023/05/19 00:26:26;;;;;;;13.80;11.10;;;;;;;20.56;45.07;100935.91;109239;1250;59989;-53
2023/05/19 00:28:55;;;;;;;13.30;11.70;;;;;;;20.56;44.84;100935.06;109082;1251;67204;-52
2023/05/19 00:31:22;;;;;;;14.30;10.90;;;;;;;20.56;44.48;100935.57;109257;1251;64002;-52
2023/05/19 00:33:48;;;;;;;14.50;11.90;;;;;;;20.56;44.25;100937.14;109202;1251;64867;-52
2023/05/19 00:36:15;;;;;;;15.60;12.70;;;;;;;20.56;43.94;100937.86;109183;1252;58474;-52
2023/05/19 00:38:42;;;;;;;15.90;11.50;;;;;;;20.56;44.11;100938.38;109180;1251;60475;-53
2023/05/19 00:41:09;;;;;;;18.00;11.70;;;;;;;20.56;44.08;100938.75;109189;1251;67527;-52
2023/05/19 00:43:36;;;;;;;15.00;11.80;;;;;;;20.56;44.04;100938.58;109298;1251;63568;-52
2023/05/19 00:46:03;;;;;;;14.90;11.80;;;;;;;20.56;44.04;100938.72;109259;1254;66130;-52
2023/05/19 00:48:30;;;;;;;13.30;10.80;;;;;;;20.56;43.96;100942.73;109108;1255;59314;-52
2023/05/19 00:51:05;;;;;;;14.90;11.20;;;;;;;20.54;44.28;100946.80;109222;1254;58216;-53
2023/05/19 00:53:32;;;;;;;12.90;10.90;;;;;;;20.53;44.91;100946.98;109182;1256;68186;-53
2023/05/19 00:55:59;;;;;;;16.00;11.20;;;;;;;20.50;45.03;100944.39;109196;1251;63746;-53
2023/05/19 00:58:29;;;;;;;13.90;9.90;;;;;;;20.49;44.81;100940.08;109188;1251;66160;-53
2023/05/19 01:01:01;;;;;;;13.60;10.70;;;;;;;20.49;44.61;100939.58;109037;1256;58617;-53
2023/05/19 01:03:36;;;;;;;13.40;10.40;;;;;;;20.48;44.18;100943.80;109174;1251;60288;-52
2023/05/19 01:06:06;;;;;;;13.40;9.90;;;;;;;20.48;44.02;100942.73;109216;1249;66085;-52
2023/05/19 01:08:36;;;;;;;14.70;9.80;;;;;;;20.49;44.00;100944.59;109208;1251;62428;-52
2023/05/19 01:11:04;;;;;;;12.10;10.00;;;;;;;20.49;44.05;100943.13;109272;1250;66352;-53
2023/05/19 01:13:31;;;;;;;11.70;8.80;;;;;;;20.50;44.00;100946.94;109211;1253;58488;-53
2023/05/19 01:16:00;;;;;;;13.80;9.50;;;;;;;20.50;44.06;100950.30;109237;1251;58651;-52
2023/05/19 01:18:50;;;;;;;14.20;10.20;;;;;;;20.50;43.89;100950.27;109185;1251;67171;-53
2023/05/19 01:21:59;;;;;;;11.90;9.30;;;;;;;20.50;43.88;100952.23;108850;1249;63784;-51
2023/05/19 01:24:50;;;;;;;12.70;8.50;;;;;;;20.51;43.83;100951.07;109252;1251;66076;-53
2023/05/19 01:27:33;;;;;;;13.70;8.60;;;;;;;20.53;43.69;100953.89;109050;1250;58519;-52
2023/05/19 01:30:37;;;;;;;11.10;8.60;;;;;;;20.54;43.92;100953.45;109272;1251;58441;-52
2023/05/19 01:33:06;;;;;;;13.00;8.70;;;;;;;20.56;44.03;100952.88;109268;1256;67133;-52
2023/05/19 01:35:37;;;;;;;15.40;8.90;;;;;;;20.58;43.92;100957.29;109223;1251;62654;-52
2023/05/19 01:38:04;;;;;;;12.80;8.90;;;;;;;20.59;44.15;100960.73;109378;1256;65271;-48
2023/05/19 01:40:31;;;;;;;14.60;9.40;;;;;;;20.59;44.17;100964.23;109124;1255;58396;-48
2023/05/19 01:42:59;;;;;;;11.60;8.30;;;;;;;20.59;44.36;100966.38;109143;1255;58892;-48
2023/05/19 01:45:27;;;;;;;12.90;8.40;;;;;;;20.59;44.25;100972.65;109261;1254;66161;-48
2023/05/19 01:47:55;;;;;;;17.30;9.00;;;;;;;20.56;44.34;100980.63;109138;1251;62732;-48
2023/05/19 01:50:23;;;;;;;11.90;8.20;;;;;;;20.54;44.37;100986.58;109217;1257;64885;-50
2023/05/19 01:52:50;;;;;;;14.10;8.40;;;;;;;20.52;44.67;100986.42;109160;1251;58584;-50
2023/05/19 01:55:17;;;;;;;11.90;8.50;;;;;;;20.51;44.97;100988.13;105701;1255;63276;-49
2023/05/19 01:58:22;;;;;;;11.10;7.70;;;;;;;20.50;45.22;100987.36;105138;1256;65956;-50
2023/05/19 02:01:08;;;;;;;12.40;8.10;;;;;;;20.47;45.15;100988.40;105002;1257;63949;-50
2023/05/19 02:03:44;;;;;;;11.90;7.60;;;;;;;20.44;45.27;100987.89;109205;1251;65847;-51
2023/05/19 02:06:18;;;;;;;12.20;7.50;;;;;;;20.41;45.21;100989.48;109055;1250;58538;-51
2023/05/19 02:08:57;;;;;;;10.30;7.60;;;;;;;20.39;45.55;100993.83;109237;1251;58379;-51
2023/05/19 02:11:28;;;;;;;10.20;7.40;;;;;;;20.37;45.65;100994.40;109194;1250;66216;-50
2023/05/19 02:14:00;;;;;;;14.00;7.90;;;;;;;20.35;45.49;100997.77;109233;1251;63962;-50
2023/05/19 02:16:27;;;;;;;10.40;6.70;;;;;;;20.35;45.60;101001.05;109162;1259;66260;-50
2023/05/19 02:18:55;;;;;;;10.50;7.40;;;;;;;20.34;45.85;101002.35;109224;1252;58783;-52
2023/05/19 02:21:22;;;;;;;11.00;7.50;;;;;;;20.35;45.93;101002.65;109164;1257;58623;-50
2023/05/19 02:23:49;;;;;;;11.60;6.60;;;;;;;20.35;46.13;101001.38;109164;1251;65977;-51
2023/05/19 02:26:18;;;;;;;10.80;7.30;;;;;;;20.35;46.30;101000.64;109193;1256;63803;-50
2023/05/19 02:28:45;;;;;;;14.10;6.70;;;;;;;20.35;46.75;101003.15;109182;1254;66127;-50
2023/05/19 02:31:12;;;;;;;11.00;7.00;;;;;;;20.35;46.88;101006.56;109135;1251;60289;-50
2023/05/19 02:33:40;;;;;;;10.30;6.10;;;;;;;20.35;47.06;101013.69;109209;1256;58367;-51
2023/05/19 02:36:07;;;;;;;11.40;7.00;;;;;;;20.36;47.10;101018.36;109126;1256;67279;-51
2023/05/19 02:38:35;;;;;;;8.70;5.90;;;;;;;20.38;47.21;101019.41;106172;1257;65424;-49
2023/05/19 02:41:02;;;;;;;10.10;5.90;;;;;;;20.38;47.35;101023.09;104959;1257;66694;-47
2023/05/19 02:43:29;;;;;;;8.80;5.80;;;;;;;20.38;47.55;101023.86;104930;1255;60497;-47
2023/05/19 02:45:56;;;;;;;9.20;6.30;;;;;;;20.37;47.51;101028.77;104943;1259;60367;-47
2023/05/19 02:48:25;;;;;;;9.40;5.70;;;;;;;20.36;47.60;101029.11;109042;1250;67371;-48
2023/05/19 02:50:52;;;;;;;12.30;6.20;;;;;;;20.35;47.77;101031.66;109074;1251;62781;-47
2023/05/19 02:53:19;;;;;;;10.80;5.80;;;;;;;20.36;48.05;101036.73;109032;1251;65150;-46
2023/05/19 02:55:45;;;;;;;8.80;5.80;;;;;;;20.36;48.25;101041.13;109077;1251;58637;-48
2023/05/19 02:58:12;;;;;;;11.40;5.90;;;;;;;20.37;48.44;101041.64;109122;1251;58269;-48
2023/05/19 03:00:39;;;;;;;13.80;6.80;;;;;;;20.37;48.61;101039.59;109244;1251;67172;-48
2023/05/19 03:03:09;;;;;;;9.10;6.00;;;;;;;20.38;48.77;101037.42;109211;1251;64105;-47
2023/05/19 03:05:36;;;;;;;8.00;5.30;;;;;;;20.39;48.90;101037.45;109164;1251;64942;-48
2023/05/19 03:08:03;;;;;;;10.40;6.20;;;;;;;20.41;48.98;101033.84;109139;1254;58125;-47
2023/05/19 03:10:30;;;;;;;10.40;6.20;;;;;;;20.43;49.06;101032.73;108986;1252;58809;-47
2023/05/19 03:12:57;;;;;;;10.20;6.50;;;;;;;20.46;48.88;101033.70;109204;1251;67185;-49
2023/05/19 03:15:24;;;;;;;8.80;5.70;;;;;;;20.48;49.02;101034.61;109146;1252;63952;-48
2023/05/19 03:17:51;;;;;;;12.40;6.40;;;;;;;20.51;49.04;101034.34;109184;1254;65080;-47
2023/05/19 03:20:18;;;;;;;10.00;5.90;;;;;;;20.53;49.30;101034.31;109185;1251;58337;-48
2023/05/19 03:22:45;;;;;;;9.70;5.70;;;;;;;20.54;49.18;101036.46;109129;1251;59739;-49
2023/05/19 03:25:12;;;;;;;9.80;5.20;;;;;;;20.56;49.28;101034.42;109130;1251;76098;-48
2023/05/19 03:27:40;;;;;;;10.10;6.00;;;;;;;20.59;49.35;101032.88;109216;1251;64916;-48
2023/05/19 03:30:07;;;;;;;9.70;6.20;;;;;;;20.61;49.38;101032.14;109186;1251;66092;-48
2023/05/19 03:32:41;;;;;;;9.00;6.30;;;;;;;20.63;49.29;101037.80;109210;1251;59784;-49
2023/05/19 03:35:09;;;;;;;13.70;6.00;;;;;;;20.64;49.38;101038.07;109166;1251;59497;-48
2023/05/19 03:37:35;;;;;;;11.60;5.50;;;;;;;20.65;49.64;101042.95;109187;1256;74767;-48
2023/05/19 03:40:04;;;;;;;10.90;6.30;;;;;;;20.66;49.70;101050.39;109177;1251;62804;-47
2023/05/19 03:42:32;;;;;;;9.30;5.90;;;;;;;20.65;49.85;101057.27;109124;1251;65867;-48
2023/05/19 03:44:59;;;;;;;9.80;6.20;;;;;;;20.62;49.84;101059.68;109152;1254;58245;-47
2023/05/19 03:47:26;;;;;;;12.80;6.00;;;;;;;20.60;49.86;101058.78;109196;1256;58079;-47
2023/05/19 03:50:02;;;;;;;7.70;5.80;;;;;;;20.58;49.87;101060.42;109208;1251;67537;-47
2023/05/19 03:52:45;;;;;;;7.20;5.10;;;;;;;20.57;49.83;101061.21;109111;1257;63532;-47
2023/05/19 03:55:21;;;;;;;14.30;5.60;;;;;;;20.57;49.86;101061.82;109044;1254;65874;-48
2023/05/19 03:57:48;;;;;;;8.10;5.90;;;;;;;20.57;49.83;101061.86;109192;1251;59844;-48
2023/05/19 04:00:16;;;;;;;9.70;5.90;;;;;;;20.57;49.79;101057.67;109145;1250;59968;-48
2023/05/19 04:02:43;;;;;;;9.80;6.20;;;;;;;20.59;49.99;101055.52;109156;1249;67303;-48
2023/05/19 04:05:10;;;;;;;8.20;5.40;;;;;;;20.63;49.77;101051.06;109218;1251;62868;-48
2023/05/19 04:07:37;;;;;;;9.50;5.80;;;;;;;20.65;49.71;101049.98;109169;1251;65682;-48
2023/05/19 04:10:04;;;;;;;14.60;6.20;;;;;;;20.67;49.92;101053.09;109147;1251;58565;-48
2023/05/19 04:12:31;;;;;;;9.50;6.10;;;;;;;20.68;49.90;101055.30;109179;1251;58225;-48
2023/05/19 04:14:58;;;;;;;7.60;5.10;;;;;;;20.68;49.97;101053.16;109152;1251;74312;-48
2023/05/19 04:17:25;;;;;;;11.20;5.50;;;;;;;20.67;49.87;101052.54;109079;1251;64357;-49
2023/05/19 04:19:53;;;;;;;8.80;4.80;;;;;;;20.67;49.85;101055.04;109152;1254;64800;-48
2023/05/19 04:22:21;;;;;;;9.70;5.70;;;;;;;20.69;49.86;101061.21;109175;1251;58337;-48
2023/05/19 04:24:49;;;;;;;9.10;5.60;;;;;;;20.71;49.78;101056.27;109131;1249;58499;-48
2023/05/19 04:27:17;;;;;;;8.50;5.00;;;;;;;20.71;49.77;101058.20;109119;1251;67701;-48
2023/05/19 04:29:47;;;;;;;8.60;5.30;;;;;;;20.73;49.86;101058.42;109179;1251;60513;-48
2023/05/19 04:32:16;;;;;;;10.00;5.40;;;;;;;20.76;50.00;101062.55;109129;1251;65896;-48
2023/05/19 04:37:47;;;;;;;9.70;5.90;;;;;;;20.62;50.33;101066.92;102323;1295;601486;-46
2023/05/19 04:40:16;;;;;;;10.70;5.40;;;;;;;20.84;50.13;101065.83;108237;1266;57050;-48
2023/05/19 04:42:44;;;;;;;7.70;5.60;;;;;;;20.86;50.13;101065.15;108113;1266;57050;-48
2023/05/19 04:45:12;;;;;;;11.10;5.70;;;;;;;20.89;50.01;101070.93;108222;1265;65404;-47
2023/05/19 04:47:42;;;;;;;9.30;5.60;;;;;;;20.90;50.23;101071.52;108091;1266;62586;-47
2023/05/19 04:50:10;;;;;;;12.80;5.90;;;;;;;20.91;49.96;101074.30;108211;1267;64703;-48
2023/05/19 04:52:38;;;;;;;9.00;5.50;;;;;;;20.92;49.91;101075.06;108158;1262;58797;-48
2023/05/19 04:55:05;;;;;;;9.00;5.60;;;;;;;20.92;49.90;101077.14;108987;1254;57894;-48
2023/05/19 04:57:32;;;;;;;8.50;5.70;;;;;;;20.92;49.96;101078.61;108979;1254;64674;-48
2023/05/19 04:59:59;;;;;;;8.40;5.20;;;;;;;20.92;49.78;101079.64;108828;1254;64235;-48
2023/05/19 05:02:32;;;;;;;8.40;5.30;;;;;;;20.93;49.67;101080.56;108753;1254;64681;-48
2023/05/19 05:04:59;;;;;;;8.90;5.50;;;;;;;20.96;49.82;101083.00;108869;1256;57578;-48
2023/05/19 05:07:26;;;;;;;7.00;4.60;;;;;;;20.95;49.87;101085.35;108874;1254;57649;-48
2023/05/19 05:09:56;;;;;;;9.00;5.20;;;;;;;20.93;49.74;101088.23;108865;1254;68342;-48
2023/05/19 05:12:23;;;;;;;9.50;5.30;;;;;;;20.93;49.64;101088.30;108731;1254;62379;-47
2023/05/19 05:14:50;;;;;;;7.50;5.20;;;;;;;20.93;49.65;101092.61;108872;1254;66101;-48
2023/05/19 05:17:19;;;;;;;9.80;6.20;;;;;;;20.91;49.83;101093.93;108861;1256;57507;-48
2023/05/19 05:19:47;;;;;;;9.00;5.50;;;;;;;20.88;49.95;101098.18;108802;1254;57900;-47
2023/05/19 05:22:14;;;;;;;9.10;5.30;;;;;;;20.85;50.18;101097.35;108974;1254;66499;-48
2023/05/19 05:24:41;;;;;;;7.50;5.30;;;;;;;20.83;50.12;101101.35;108947;1254;61273;-48
2023/05/19 05:27:09;;;;;;;8.70;5.40;;;;;;;20.83;50.30;101105.33;108856;1257;65031;-47
2023/05/19 05:29:36;;;;;;;8.70;5.30;;;;;;;20.83;50.31;101106.53;108835;1256;57684;-47
2023/05/19 05:32:04;;;;;;;7.80;5.20;;;;;;;20.83;50.26;101108.90;108786;1254;57373;-48
2023/05/19 05:34:31;;;;;;;9.30;5.20;;;;;;;20.82;50.27;101110.58;108744;1254;65223;-55
2023/05/19 05:36:59;;;;;;;8.40;5.80;;;;;;;20.82;50.12;101114.39;108874;1254;63205;-56
2023/05/19 05:39:26;;;;;;;7.70;4.90;;;;;;;20.81;50.08;101111.74;108852;1254;66667;-55
2023/05/19 05:41:54;;;;;;;10.00;5.60;;;;;;;20.81;49.93;101112.34;108758;1254;59070;-57
2023/05/19 05:44:21;;;;;;;9.30;5.20;;;;;;;20.81;49.93;101109.31;108845;1254;57557;-55
2023/05/19 05:46:49;;;;;;;10.20;5.70;;;;;;;20.83;49.73;101109.08;108838;1254;63696;-56
2023/05/19 05:49:16;;;;;;;7.20;5.10;;;;;;;20.86;49.61;101112.97;108735;1254;63461;-56
2023/05/19 05:51:44;;;;;;;8.10;5.40;;;;;;;20.88;49.53;101114.86;108925;1254;66153;-55
2023/05/19 05:54:31;;;;;;;9.10;5.70;;;;;;;20.89;49.39;101114.56;108823;1254;58044;-55
2023/05/19 05:56:59;;;;;;;8.30;5.20;;;;;;;20.90;49.46;101117.20;108831;1259;58531;-55
2023/05/19 05:59:26;;;;;;;8.20;5.30;;;;;;;20.90;49.43;101122.28;108802;1254;67220;-55
2023/05/19 06:01:53;;;;;;;9.10;4.70;;;;;;;20.91;49.56;101123.48;108869;1254;62721;-55
2023/05/19 06:04:20;;;;;;;7.70;5.10;;;;;;;20.92;49.52;101125.19;108839;1254;65342;-54
2023/05/19 06:06:47;;;;;;;8.00;5.50;;;;;;;20.94;49.44;101129.69;108931;1254;58404;-54
2023/05/19 06:09:17;;;;;;;8.30;5.40;;;;;;;20.97;49.51;101127.80;108764;1254;58548;-55
2023/05/19 06:11:45;;;;;;;9.10;5.10;;;;;;;20.99;49.23;101132.09;108835;1254;65702;-55
2023/05/19 06:14:12;;;;;;;9.50;5.10;;;;;;;21.01;49.21;101136.14;108827;1257;63781;-54
2023/05/19 06:16:51;;;;;;;8.90;5.50;;;;;;;21.03;49.24;101142.46;108800;1254;64875;-55
2023/05/19 06:19:19;;;;;;;8.10;5.00;;;;;;;21.05;49.16;101141.23;108712;1254;58446;-55
2023/05/19 06:21:46;;;;;;;11.20;6.10;;;;;;;21.06;49.25;101141.08;108875;1256;60307;-55
2023/05/19 06:24:13;;;;;;;9.20;6.10;;;;;;;21.05;49.23;101144.70;108733;1254;66186;-55
2023/05/19 06:26:40;;;;;;;13.10;5.90;;;;;;;21.04;48.93;101149.19;108818;1254;63132;-54
2023/05/19 06:29:07;;;;;;;10.80;6.50;;;;;;;21.02;49.10;101142.95;108834;1254;66222;-55
2023/05/19 06:31:34;;;;;;;11.40;6.70;;;;;;;21.02;49.44;101144.88;108890;1254;58000;-56
2023/05/19 06:34:11;;;;;;;9.90;5.60;;;;;;;21.04;49.50;101144.63;108753;1254;58244;-55
2023/05/19 06:36:40;;;;;;;9.40;5.20;;;;;;;21.07;49.46;101146.63;108741;1253;66515;-56
2023/05/19 06:39:07;;;;;;;7.70;4.90;;;;;;;21.09;49.66;101147.83;108842;1254;63577;-56
2023/05/19 06:41:34;;;;;;;8.80;5.60;;;;;;;21.12;49.66;101148.83;108727;1254;66009;-56
2023/05/19 06:44:03;;;;;;;10.70;5.70;;;;;;;21.14;49.74;101153.50;108698;1256;57483;-56
2023/05/19 06:46:31;;;;;;;9.20;5.00;;;;;;;21.18;49.58;101154.35;108646;1253;59427;-57
2023/05/19 06:48:58;;;;;;;9.70;5.50;;;;;;;21.22;49.46;101153.89;108697;1254;65172;-57
2023/05/19 06:51:26;;;;;;;10.10;5.70;;;;;;;21.26;49.50;101154.52;108689;1254;62836;-56
2023/05/19 06:53:54;;;;;;;9.20;5.20;;;;;;;21.29;49.18;101152.26;108711;1254;65268;-57
2023/05/19 06:56:22;;;;;;;8.20;5.10;;;;;;;21.33;49.10;101152.30;108715;1254;58738;-55
2023/05/19 06:58:50;;;;;;;9.30;4.90;;;;;;;21.37;48.88;101154.20;108779;1260;57346;-55
2023/05/19 07:01:18;;;;;;;9.40;5.20;;;;;;;21.41;48.87;101155.39;108921;1254;65437;-58
2023/05/19 07:03:48;;;;;;;10.60;5.60;;;;;;;21.45;48.80;101155.57;108834;1254;62740;-56
2023/05/19 07:06:16;;;;;;;7.80;5.30;;;;;;;21.52;48.79;101160.14;108827;1254;66282;-56
2023/05/19 07:08:43;;;;;;;8.30;5.20;;;;;;;21.61;48.70;101160.89;108875;1254;58050;-55
2023/05/19 07:11:11;;;;;;;8.90;5.10;;;;;;;21.70;48.37;101165.20;108612;1256;59595;-55
2023/05/19 07:13:38;;;;;;;8.30;5.10;;;;;;;21.79;48.40;101164.43;108641;1254;67988;-56
2023/05/19 07:16:05;;;;;;;12.50;5.10;;;;;;;21.90;48.17;101165.25;108924;1254;72200;-55
2023/05/19 07:18:32;;;;;;;8.80;5.60;;;;;;;21.98;47.57;101164.30;108721;1257;66478;-57
2023/05/19 07:20:59;;;;;;;10.10;5.00;;;;;;;22.07;47.21;101165.10;108805;1254;57589;-57
2023/05/19 07:23:26;;;;;;;9.60;5.70;;;;;;;22.16;47.04;101162.11;108881;1254;57400;-55
2023/05/19 07:25:56;;;;;;;8.90;5.80;;;;;;;22.25;46.84;101159.37;108917;1254;66317;-55
2023/05/19 07:28:23;;;;;;;9.70;5.70;;;;;;;22.39;46.35;101161.84;106302;1260;65217;-57
2023/05/19 07:30:50;;;;;;;8.30;5.30;;;;;;;22.48;45.80;101164.41;108945;1254;66023;-56
2023/05/19 07:33:17;;;;;;;7.30;5.30;;;;;;;22.55;45.60;101164.23;108875;1254;59551;-54
2023/05/19 07:35:45;;;;;;;9.60;5.00;;;;;;;22.67;45.60;101163.92;108965;1254;57419;-55
2023/05/19 07:38:12;;;;;;;9.10;5.60;;;;;;;22.81;45.30;101158.51;108986;1253;67094;-55
2023/05/19 07:40:39;;;;;;;6.90;4.90;;;;;;;22.95;44.43;101157.16;107723;1259;64410;-58
2023/05/19 07:43:12;;;;;;;9.50;5.10;;;;;;;23.10;43.95;101153.92;104718;1260;64994;-55
2023/05/19 07:45:39;;;;;;;9.80;5.50;;;;;;;23.25;43.09;101152.10;104840;1255;60895;-54
2023/05/19 07:48:06;;;;;;;9.10;4.90;;;;;;;23.39;42.33;101151.30;105099;1254;59762;-54
2023/05/19 07:50:33;;;;;;;8.80;5.10;;;;;;;23.51;41.42;101149.09;108988;1254;66656;-56
2023/05/19 07:53:00;;;;;;;7.50;4.60;;;;;;;23.64;41.29;101151.70;108969;1254;63742;-56
2023/05/19 07:55:27;;;;;;;9.50;5.20;;;;;;;23.73;40.70;101155.69;109012;1254;66267;-55
2023/05/19 07:57:55;;;;;;;7.90;5.60;;;;;;;23.81;40.54;101155.17;108895;1254;58179;-56
2023/05/19 08:00:22;;;;;;;9.90;4.60;;;;;;;23.88;40.50;101155.67;108965;1254;58168;-55
2023/05/19 08:02:49;;;;;;;6.90;5.10;;;;;;;23.95;39.50;101151.14;108915;1254;66573;-56
2023/05/19 08:05:16;;;;;;;9.70;5.80;;;;;;;23.97;39.42;101156.65;109014;1259;62867;-54
2023/05/19 08:07:43;;;;;;;6.80;4.50;;;;;;;23.99;39.47;101157.55;108863;1257;66289;-55
2023/05/19 08:10:09;;;;;;;8.10;5.10;;;;;;;24.03;39.13;101154.36;108998;1254;57768;-56
2023/05/19 08:12:36;;;;;;;9.80;5.50;;;;;;;24.08;39.17;101154.23;108941;1254;57820;-55
2023/05/19 08:15:04;;;;;;;9.90;5.00;;;;;;;24.14;39.17;101152.35;108910;1254;64982;-56
2023/05/19 08:17:31;;;;;;;8.60;4.90;;;;;;;24.17;39.30;101146.88;109074;1254;63767;-56
2023/05/19 08:19:59;;;;;;;7.60;5.20;;;;;;;24.22;39.73;101142.08;109142;1254;66216;-56
2023/05/19 08:22:26;;;;;;;7.70;5.10;;;;;;;24.34;39.75;101145.19;108997;1254;57621;-55
2023/05/19 08:24:53;;;;;;;8.40;5.00;;;;;;;24.42;39.27;101145.45;108930;1254;58172;-56
2023/05/19 08:27:20;;;;;;;8.20;5.00;;;;;;;24.49;38.53;101145.73;109013;1254;66992;-57
2023/05/19 08:29:47;;;;;;;8.60;5.10;;;;;;;24.53;38.32;101146.41;109028;1254;62393;-55
2023/05/19 08:32:14;;;;;;;10.40;5.50;;;;;;;24.58;38.11;101144.43;108977;1254;66248;-55
2023/05/19 08:34:41;;;;;;;8.20;5.30;;;;;;;24.63;38.33;101148.48;108854;1257;57541;-56
2023/05/19 08:37:08;;;;;;;8.60;5.20;;;;;;;24.68;37.92;101150.84;108881;1254;58190;-55
2023/05/19 08:39:35;;;;;;;7.80;5.10;;;;;;;24.74;37.71;101144.95;108939;1254;66520;-56
2023/05/19 08:42:02;;;;;;;9.40;5.00;;;;;;;24.78;37.55;101146.92;108955;1253;65485;-57
2023/05/19 08:44:29;;;;;;;10.20;5.10;;;;;;;24.81;37.48;101147.67;108912;1254;65137;-57
2023/05/19 08:46:57;;;;;;;9.40;5.40;;;;;;;24.85;37.40;101150.60;108874;1254;58377;-57
2023/05/19 08:49:27;;;;;;;8.10;5.70;;;;;;;24.88;37.50;101149.16;108796;1254;60711;-56
2023/05/19 08:52:06;;;;;;;8.60;5.70;;;;;;;24.90;36.88;101142.46;108905;1254;67219;-56
2023/05/19 08:54:38;;;;;;;12.10;5.80;;;;;;;24.88;36.44;101148.30;108875;1254;62413;-57
2023/05/19 08:57:06;;;;;;;11.10;6.00;;;;;;;24.86;36.55;101148.90;108776;1254;67880;-58
2023/05/19 08:59:33;;;;;;;8.00;5.20;;;;;;;24.83;36.62;101147.30;108756;1254;58266;-56
2023/05/19 09:02:00;;;;;;;9.70;5.70;;;;;;;24.83;36.88;101140.85;109046;1254;58737;-57
2023/05/19 09:04:27;;;;;;;10.90;6.00;;;;;;;24.85;37.21;101138.63;108868;1254;66859;-57
2023/05/19 09:06:57;;;;;;;9.80;5.90;;;;;;;24.89;37.11;101136.83;108838;1254;63430;-56
2023/05/19 09:09:24;;;;;;;8.40;5.40;;;;;;;24.90;36.48;101134.77;109025;1256;66043;-57
2023/05/19 09:11:51;;;;;;;8.50;5.90;;;;;;;24.89;36.86;101138.77;109034;1257;58472;-57
2023/05/19 09:14:18;;;;;;;8.20;5.80;;;;;;;24.89;36.88;101141.55;108920;1254;58171;-56
2023/05/19 09:16:49;;;;;;;8.00;5.60;;;;;;;24.88;37.48;101143.99;109002;1254;66125;-57
2023/05/19 09:19:16;;;;;;;10.10;5.70;;;;;;;24.89;37.41;101144.91;109162;1257;62803;-56
2023/05/19 09:21:44;;;;;;;9.80;5.70;;;;;;;24.91;37.69;101147.19;109065;1254;66217;-57
2023/05/19 09:24:11;;;;;;;11.40;5.50;;;;;;;24.96;38.05;101146.14;108911;1254;58257;-56
2023/05/19 09:26:39;;;;;;;8.50;5.20;;;;;;;25.03;37.96;101144.39;108795;1254;58253;-56
2023/05/19 09:29:14;;;;;;;10.50;6.00;;;;;;;25.09;37.68;101140.02;109021;1254;65966;-57
2023/05/19 09:31:59;;;;;;;8.00;5.60;;;;;;;25.13;37.61;101142.11;108993;1259;62673;-57
2023/05/19 09:34:26;;;;;;;12.90;5.80;;;;;;;25.17;37.56;101141.18;108875;1257;66025;-57
2023/05/19 09:36:53;;;;;;;10.10;6.10;;;;;;;25.19;37.51;101135.96;109029;1254;59780;-56
2023/05/19 09:39:21;;;;;;;8.70;5.40;;;;;;;25.22;37.67;101135.20;109046;1254;58614;-56
2023/05/19 09:41:52;;;;;;;10.70;6.40;;;;;;;25.28;37.80;101132.87;108949;1259;65956;-57
2023/05/19 09:44:22;;;;;;;7.50;5.90;;;;;;;25.32;37.57;101134.64;109000;1254;63941;-57
2023/05/19 09:46:49;;;;;;;10.50;5.80;;;;;;;25.34;36.97;101132.20;108948;1254;65927;-56
2023/05/19 09:49:24;;;;;;;8.50;5.90;;;;;;;25.36;37.32;101130.92;108911;1256;58389;-56
2023/05/19 09:51:55;;;;;;;8.60;5.80;;;;;;;25.41;37.41;101132.92;108943;1253;58704;-56
2023/05/19 09:54:23;;;;;;;9.50;5.70;;;;;;;25.47;36.78;101136.27;109002;1259;66241;-57
2023/05/19 09:56:59;;;;;;;8.90;5.90;;;;;;;25.50;36.55;101142.61;109020;1254;64419;-56
2023/05/19 09:59:27;;;;;;;8.10;5.50;;;;;;;25.48;36.44;101143.02;108912;1257;67009;-57
2023/05/19 10:01:58;;;;;;;10.90;6.40;;;;;;;25.45;36.50;101140.93;108870;1254;58913;-57
2023/05/19 10:04:26;;;;;;;12.20;5.50;;;;;;;25.42;36.42;101142.38;109003;1254;58326;-57
2023/05/19 10:06:54;;;;;;;11.70;5.90;;;;;;;25.43;36.52;101140.31;108891;1256;66221;-57
2023/05/19 10:09:23;;;;;;;12.50;5.80;;;;;;;25.43;36.33;101139.41;109018;1254;63717;-57
2023/05/19 10:11:51;;;;;;;7.50;5.40;;;;;;;25.43;36.29;101136.45;108967;1254;66125;-56
2023/05/19 10:14:25;;;;;;;7.40;5.40;;;;;;;25.46;36.44;101136.46;108875;1258;59784;-57
2023/05/19 10:16:56;;;;;;;11.20;5.60;;;;;;;25.48;35.88;101133.70;108960;1254;58194;-56
2023/05/19 10:19:24;;;;;;;9.30;5.80;;;;;;;25.47;35.97;101134.10;108899;1256;66345;-56
2023/05/19 10:21:52;;;;;;;8.70;6.60;;;;;;;25.50;36.31;101137.97;109034;1254;64488;-56
2023/05/19 10:24:20;;;;;;;9.40;5.90;;;;;;;25.50;35.74;101134.86;108921;1257;64956;-56
2023/05/19 10:26:50;;;;;;;9.70;6.00;;;;;;;25.49;35.89;101132.63;108911;1259;58222;-56
2023/05/19 10:29:20;;;;;;;10.20;5.60;;;;;;;25.52;36.11;101130.59;108790;1254;58253;-57
2023/05/19 10:31:47;;;;;;;8.10;6.00;;;;;;;25.58;36.37;101126.62;108861;1255;66257;-56
2023/05/19 10:34:17;;;;;;;9.70;6.20;;;;;;;25.60;36.09;101121.95;108824;1254;63942;-56
2023/05/19 10:36:49;;;;;;;9.00;6.00;;;;;;;25.64;36.48;101123.70;108952;1255;66968;-56
2023/05/19 10:39:21;;;;;;;8.90;6.20;;;;;;;25.67;36.87;101118.10;108809;1256;59998;-56
2023/05/19 10:42:11;;;;;;;10.70;6.70;;;;;;;25.72;36.52;101114.70;108786;1254;58526;-56
2023/05/19 10:45:14;;;;;;;9.60;7.10;;;;;;;25.77;36.63;101112.90;108825;1254;67402;-57
2023/05/19 10:47:41;;;;;;;9.00;6.80;;;;;;;25.83;36.65;101107.71;108986;1254;62291;-57
2023/05/19 10:50:08;;;;;;;11.40;6.90;;;;;;;25.86;36.81;101106.77;108899;1254;65899;-57
2023/05/19 10:52:36;;;;;;;8.90;6.60;;;;;;;25.91;36.79;101110.91;108767;1254;58604;-57
2023/05/19 10:55:03;;;;;;;9.80;6.80;;;;;;;25.97;36.81;101113.52;108881;1254;58143;-56
2023/05/19 10:57:34;;;;;;;9.50;6.70;;;;;;;26.04;36.30;101113.52;108975;1254;66315;-57
2023/05/19 11:00:25;;;;;;;11.50;7.10;;;;;;;26.10;36.10;101112.27;108876;1254;63889;-57
2023/05/19 11:02:55;;;;;;;9.30;6.50;;;;;;;26.14;36.26;101106.20;108981;1260;65102;-57
2023/05/19 11:05:28;;;;;;;8.40;6.60;;;;;;;26.21;35.82;101104.59;108779;1254;58329;-57
2023/05/19 11:08:00;;;;;;;10.50;9.10;;;;;;;26.30;36.97;101107.65;108917;1254;58435;-57
2023/05/19 11:10:28;;;;;;;14.40;10.50;;;;;;;26.36;38.53;101116.19;108887;1253;67505;-57
2023/05/19 11:12:55;;;;;;;12.90;9.10;;;;;;;26.30;38.98;101110.13;108960;1254;63641;-57
2023/05/19 11:15:26;;;;;;;13.20;9.30;;;;;;;26.25;39.17;101110.22;108915;1253;64904;-57
2023/05/19 11:17:53;;;;;;;12.20;8.20;;;;;;;26.24;38.96;101114.16;108943;1254;59107;-57
2023/05/19 11:20:21;;;;;;;10.70;8.10;;;;;;;26.26;38.60;101115.20;108931;1254;58486;-57
2023/05/19 11:23:13;;;;;;;11.20;8.30;;;;;;;26.28;38.02;101111.30;108944;1254;67347;-56
2023/05/19 11:25:45;;;;;;;16.80;9.30;;;;;;;26.25;37.56;101108.15;108921;1254;62918;-56